sensor_id;sensor_type;location;lat;lon;timestamp;pressure;altitude;pressure_sealevel;temperature;humidity
79729;BME280;69218;52.132;5.418;2024-03-08T00:02:15;102064.94;;;2.66;100.00
79729;BME280;69218;52.132;5.418;2024-03-08T00:04:42;102067.59;;;2.65;100.00
79729;BME280;69218;52.132;5.418;2024-03-08T00:07:15;102067.69;;;2.62;100.00
79729;BME280;69218;52.132;5.418;2024-03-08T00:09:42;102064.34;;;2.57;100.00
79729;BME280;69218;52.132;5.418;2024-03-08T00:12:08;102064.41;;;2.54;100.00
79729;BME280;69218;52.132;5.418;2024-03-08T00:14:35;102056.66;;;2.54;100.00
79729;BME280;69218;52.132;5.418;2024-03-08T00:17:04;102060.13;;;2.53;100.00
79729;BME280;69218;52.132;5.418;2024-03-08T00:19:30;102056.75;;;2.51;100.00
79729;BME280;69218;52.132;5.418;2024-03-08T00:21:57;102054.25;;;2.47;100.00
79729;BME280;69218;52.132;5.418;2024-03-08T00:24:24;102056.00;;;2.45;100.00
79729;BME280;69218;52.132;5.418;2024-03-08T00:26:51;102060.38;;;2.43;100.00
79729;BME280;69218;52.132;5.418;2024-03-08T00:29:20;102054.47;;;2.40;100.00
79729;BME280;69218;52.132;5.418;2024-03-08T00:31:46;102057.06;;;2.38;100.00
79729;BME280;69218;52.132;5.418;2024-03-08T00:34:13;102052.78;;;2.37;100.00
79729;BME280;69218;52.132;5.418;2024-03-08T00:36:39;102055.41;;;2.36;100.00
79729;BME280;69218;52.132;5.418;2024-03-08T00:39:06;102051.19;;;2.33;100.00
79729;BME280;69218;52.132;5.418;2024-03-08T00:41:33;102046.88;;;2.32;100.00
79729;BME280;69218;52.132;5.418;2024-03-08T00:44:00;102040.94;;;2.29;100.00
79729;BME280;69218;52.132;5.418;2024-03-08T00:46:39;102042.75;;;2.25;100.00
79729;BME280;69218;52.132;5.418;2024-03-08T00:49:05;102047.97;;;2.24;100.00
79729;BME280;69218;52.132;5.418;2024-03-08T00:51:33;102038.50;;;2.23;100.00
79729;BME280;69218;52.132;5.418;2024-03-08T00:53:59;102036.84;;;2.20;100.00
79729;BME280;69218;52.132;5.418;2024-03-08T00:56:26;102041.19;;;2.19;100.00
79729;BME280;69218;52.132;5.418;2024-03-08T00:58:53;102030.06;;;2.16;100.00
79729;BME280;69218;52.132;5.418;2024-03-08T01:01:19;102022.34;;;2.14;100.00
79729;BME280;69218;52.132;5.418;2024-03-08T01:03:47;102028.44;;;2.12;100.00
79729;BME280;69218;52.132;5.418;2024-03-08T01:06:15;102014.72;;;2.08;100.00
79729;BME280;69218;52.132;5.418;2024-03-08T01:08:41;102014.72;;;2.08;100.00
79729;BME280;69218;52.132;5.418;2024-03-08T01:11:09;102010.50;;;2.04;100.00
79729;BME280;69218;52.132;5.418;2024-03-08T01:13:36;101993.34;;;2.02;100.00
79729;BME280;69218;52.132;5.418;2024-03-08T01:16:02;101995.13;;;2.00;100.00
79729;BME280;69218;52.132;5.418;2024-03-08T01:18:29;101996.03;;;1.99;100.00
79729;BME280;69218;52.132;5.418;2024-03-08T01:20:56;101991.81;;;1.95;100.00
79729;BME280;69218;52.132;5.418;2024-03-08T01:23:23;101998.72;;;1.94;100.00
79729;BME280;69218;52.132;5.418;2024-03-08T01:25:50;101988.47;;;1.91;100.00
79729;BME280;69218;52.132;5.418;2024-03-08T01:28:25;101989.38;;;1.88;100.00
79729;BME280;69218;52.132;5.418;2024-03-08T01:30:52;101986.00;;;1.86;100.00
79729;BME280;69218;52.132;5.418;2024-03-08T01:33:26;101986.88;;;1.85;100.00
79729;BME280;69218;52.132;5.418;2024-03-08T01:35:53;101974.00;;;1.84;100.00
79729;BME280;69218;52.132;5.418;2024-03-08T01:38:20;101977.53;;;1.80;100.00
79729;BME280;69218;52.132;5.418;2024-03-08T01:40:51;101971.59;;;1.76;100.00
79729;BME280;69218;52.132;5.418;2024-03-08T01:43:18;101971.59;;;1.76;100.00
79729;BME280;69218;52.132;5.418;2024-03-08T01:45:46;101969.13;;;1.72;100.00
79729;BME280;69218;52.132;5.418;2024-03-08T01:48:13;101969.16;;;1.70;100.00
79729;BME280;69218;52.132;5.418;2024-03-08T01:50:41;101966.66;;;1.67;100.00
79729;BME280;69218;52.132;5.418;2024-03-08T01:53:08;101960.66;;;1.65;100.00
79729;BME280;69218;52.132;5.418;2024-03-08T01:55:36;101961.56;;;1.64;100.00
79729;BME280;69218;52.132;5.418;2024-03-08T01:58:04;101951.28;;;1.61;100.00
79729;BME280;69218;52.132;5.418;2024-03-08T02:00:35;101959.94;;;1.60;100.00
79729;BME280;69218;52.132;5.418;2024-03-08T02:03:03;101953.06;;;1.59;100.00
79729;BME280;69218;52.132;5.418;2024-03-08T02:05:30;101951.44;;;1.55;100.00
79729;BME280;69218;52.132;5.418;2024-03-08T02:07:57;101951.44;;;1.55;100.00
79729;BME280;69218;52.132;5.418;2024-03-08T02:10:24;101945.50;;;1.51;100.00
79729;BME280;69218;52.132;5.418;2024-03-08T02:12:50;101957.56;;;1.51;100.00
79729;BME280;69218;52.132;5.418;2024-03-08T02:15:17;101944.72;;;1.48;100.00
79729;BME280;69218;52.132;5.418;2024-03-08T02:17:44;101945.69;;;1.44;100.00
79729;BME280;69218;52.132;5.418;2024-03-08T02:20:10;101944.88;;;1.42;100.00
79729;BME280;69218;52.132;5.418;2024-03-08T02:22:39;101940.63;;;1.39;100.00
79729;BME280;69218;52.132;5.418;2024-03-08T02:25:08;101938.13;;;1.36;100.00
79729;BME280;69218;52.132;5.418;2024-03-08T02:27:34;101933.00;;;1.34;100.00
79729;BME280;69218;52.132;5.418;2024-03-08T02:30:01;101932.16;;;1.34;100.00
79729;BME280;69218;52.132;5.418;2024-03-08T02:32:27;101922.78;;;1.30;100.00
79729;BME280;69218;52.132;5.418;2024-03-08T02:34:57;101919.34;;;1.29;100.00
79729;BME280;69218;52.132;5.418;2024-03-08T02:37:26;101921.13;;;1.26;100.00
79729;BME280;69218;52.132;5.418;2024-03-08T02:39:55;101921.13;;;1.26;100.00
79729;BME280;69218;52.132;5.418;2024-03-08T02:42:21;101916.91;;;1.23;100.00
79729;BME280;69218;52.132;5.418;2024-03-08T02:44:49;101908.34;;;1.21;100.00
79729;BME280;69218;52.132;5.418;2024-03-08T02:47:15;101906.66;;;1.20;100.00
79729;BME280;69218;52.132;5.418;2024-03-08T02:49:42;101909.25;;;1.19;100.00
79729;BME280;69218;52.132;5.418;2024-03-08T02:52:08;101898.13;;;1.17;100.00
79729;BME280;69218;52.132;5.418;2024-03-08T02:54:35;101901.63;;;1.14;100.00
79729;BME280;69218;52.132;5.418;2024-03-08T02:57:03;101898.22;;;1.12;100.00
79729;BME280;69218;52.132;5.418;2024-03-08T02:59:30;101893.97;;;1.09;100.00
79729;BME280;69218;52.132;5.418;2024-03-08T03:01:57;101888.84;;;1.08;100.00
79729;BME280;69218;52.132;5.418;2024-03-08T03:04:24;101891.44;;;1.08;100.00
79729;BME280;69218;52.132;5.418;2024-03-08T03:06:50;101887.19;;;1.05;100.00
79729;BME280;69218;52.132;5.418;2024-03-08T03:09:17;101884.72;;;1.01;100.00
79729;BME280;69218;52.132;5.418;2024-03-08T03:11:49;101885.56;;;1.01;100.00
79729;BME280;69218;52.132;5.418;2024-03-08T03:14:16;101880.41;;;1.01;100.00
79729;BME280;69218;52.132;5.418;2024-03-08T03:16:42;101876.13;;;1.00;100.00
79729;BME280;69218;52.132;5.418;2024-03-08T03:19:10;101871.84;;;0.99;100.00
79729;BME280;69218;52.132;5.418;2024-03-08T03:21:36;101876.19;;;0.97;100.00
79729;BME280;69218;52.132;5.418;2024-03-08T03:24:04;101867.63;;;0.95;100.00
79729;BME280;69218;52.132;5.418;2024-03-08T03:26:37;101872.81;;;0.95;100.00
79729;BME280;69218;52.132;5.418;2024-03-08T03:29:05;101866.78;;;0.95;100.00
79729;BME280;69218;52.132;5.418;2024-03-08T03:31:35;101865.16;;;0.92;100.00
79729;BME280;69218;52.132;5.418;2024-03-08T03:34:02;101863.41;;;0.91;100.00
79729;BME280;69218;52.132;5.418;2024-03-08T03:36:30;101858.25;;;0.91;100.00
79729;BME280;69218;52.132;5.418;2024-03-08T03:38:57;101866.09;;;0.88;100.00
79729;BME280;69218;52.132;5.418;2024-03-08T03:41:32;101860.97;;;0.87;100.00
79729;BME280;69218;52.132;5.418;2024-03-08T03:43:58;101862.69;;;0.86;100.00
79729;BME280;69218;52.132;5.418;2024-03-08T03:46:25;101848.97;;;0.84;100.00
79729;BME280;69218;52.132;5.418;2024-03-08T03:48:56;101858.44;;;0.83;100.00
79729;BME280;69218;52.132;5.418;2024-03-08T03:51:22;101854.16;;;0.82;100.00
79729;BME280;69218;52.132;5.418;2024-03-08T03:53:49;101852.44;;;0.83;100.00
79729;BME280;69218;52.132;5.418;2024-03-08T03:56:15;101851.63;;;0.81;100.00
79729;BME280;69218;52.132;5.418;2024-03-08T03:58:42;101844.72;;;0.81;100.00
79729;BME280;69218;52.132;5.418;2024-03-08T04:01:09;101849.88;;;0.81;100.00
79729;BME280;69218;52.132;5.418;2024-03-08T04:03:36;101849.88;;;0.81;100.00
79729;BME280;69218;52.132;5.418;2024-03-08T04:06:06;101845.63;;;0.80;100.00
79729;BME280;69218;52.132;5.418;2024-03-08T04:08:32;101845.63;;;0.80;100.00
79729;BME280;69218;52.132;5.418;2024-03-08T04:11:01;101844.78;;;0.80;100.00
79729;BME280;69218;52.132;5.418;2024-03-08T04:13:27;101839.66;;;0.78;100.00
79729;BME280;69218;52.132;5.418;2024-03-08T04:15:54;101838.81;;;0.78;100.00
79729;BME280;69218;52.132;5.418;2024-03-08T04:18:20;101837.94;;;0.77;100.00
79729;BME280;69218;52.132;5.418;2024-03-08T04:20:47;101837.91;;;0.79;100.00
79729;BME280;69218;52.132;5.418;2024-03-08T04:23:14;101835.34;;;0.77;100.00
79729;BME280;69218;52.132;5.418;2024-03-08T04:25:43;101830.28;;;0.74;100.00
79729;BME280;69218;52.132;5.418;2024-03-08T04:28:10;101831.16;;;0.73;100.00
79729;BME280;69218;52.132;5.418;2024-03-08T04:30:38;101826.88;;;0.72;100.00
79729;BME280;69218;52.132;5.418;2024-03-08T04:33:09;101825.16;;;0.73;100.00
79729;BME280;69218;52.132;5.418;2024-03-08T04:35:36;101829.50;;;0.71;100.00
79729;BME280;69218;52.132;5.418;2024-03-08T04:38:03;101824.34;;;0.69;100.00
79729;BME280;69218;52.132;5.418;2024-03-08T04:40:31;101834.69;;;0.69;100.00
79729;BME280;69218;52.132;5.418;2024-03-08T04:42:59;101820.94;;;0.69;100.00
79729;BME280;69218;52.132;5.418;2024-03-08T04:45:25;101815.81;;;0.67;100.00
79729;BME280;69218;52.132;5.418;2024-03-08T04:47:52;101820.97;;;0.67;100.00
79729;BME280;69218;52.132;5.418;2024-03-08T04:50:19;101819.31;;;0.65;100.00
79729;BME280;69218;52.132;5.418;2024-03-08T04:52:45;101827.91;;;0.65;100.00
79729;BME280;69218;52.132;5.418;2024-03-08T04:55:12;101812.44;;;0.65;100.00
79729;BME280;69218;52.132;5.418;2024-03-08T04:57:39;101809.00;;;0.65;100.00
79729;BME280;69218;52.132;5.418;2024-03-08T05:00:06;101803.00;;;0.63;100.00
79729;BME280;69218;52.132;5.418;2024-03-08T05:02:38;101806.44;;;0.63;100.00
79729;BME280;69218;52.132;5.418;2024-03-08T05:05:08;101812.47;;;0.64;100.00
79729;BME280;69218;52.132;5.418;2024-03-08T05:07:39;101809.06;;;0.62;100.00
79729;BME280;69218;52.132;5.418;2024-03-08T05:10:06;101813.38;;;0.61;100.00
79729;BME280;69218;52.132;5.418;2024-03-08T05:12:33;101807.44;;;0.58;100.00
79729;BME280;69218;52.132;5.418;2024-03-08T05:15:00;101804.03;;;0.57;100.00
79729;BME280;69218;52.132;5.418;2024-03-08T05:17:26;101809.19;;;0.57;100.00
79729;BME280;69218;52.132;5.418;2024-03-08T05:19:54;101809.19;;;0.57;100.00
79729;BME280;69218;52.132;5.418;2024-03-08T05:22:20;101805.75;;;0.55;100.00
79729;BME280;69218;52.132;5.418;2024-03-08T05:24:47;101801.53;;;0.52;100.00
79729;BME280;69218;52.132;5.418;2024-03-08T05:27:14;101809.22;;;0.54;100.00
79729;BME280;69218;52.132;5.418;2024-03-08T05:29:40;101799.81;;;0.53;100.00
79729;BME280;69218;52.132;5.418;2024-03-08T05:32:07;101799.84;;;0.51;100.00
79729;BME280;69218;52.132;5.418;2024-03-08T05:34:33;101797.31;;;0.48;100.00
79729;BME280;69218;52.132;5.418;2024-03-08T05:37:00;101793.88;;;0.48;100.00
79729;BME280;69218;52.132;5.418;2024-03-08T05:39:27;101793.09;;;0.46;100.00
79729;BME280;69218;52.132;5.418;2024-03-08T05:41:54;101793.97;;;0.45;100.00
79729;BME280;69218;52.132;5.418;2024-03-08T05:44:22;101788.78;;;0.46;100.00
79729;BME280;69218;52.132;5.418;2024-03-08T05:46:48;101786.22;;;0.45;100.00
79729;BME280;69218;52.132;5.418;2024-03-08T05:49:15;101783.72;;;0.42;100.00
79729;BME280;69218;52.132;5.418;2024-03-08T05:51:42;101789.75;;;0.41;100.00
79729;BME280;69218;52.132;5.418;2024-03-08T05:54:10;101781.97;;;0.42;100.00
79729;BME280;69218;52.132;5.418;2024-03-08T05:56:40;101789.69;;;0.44;100.00
79729;BME280;69218;52.132;5.418;2024-03-08T05:59:11;101782.00;;;0.41;100.00
79729;BME280;69218;52.132;5.418;2024-03-08T06:01:38;101781.16;;;0.40;100.00
79729;BME280;69218;52.132;5.418;2024-03-08T06:04:07;101779.44;;;0.41;100.00
79729;BME280;69218;52.132;5.418;2024-03-08T06:06:34;101768.31;;;0.39;100.00
79729;BME280;69218;52.132;5.418;2024-03-08T06:09:00;101764.84;;;0.40;100.00
79729;BME280;69218;52.132;5.418;2024-03-08T06:11:34;101763.19;;;0.37;100.00
79729;BME280;69218;52.132;5.418;2024-03-08T06:14:02;101770.03;;;0.38;100.00
79729;BME280;69218;52.132;5.418;2024-03-08T06:16:28;101772.63;;;0.38;100.00
79729;BME280;69218;52.132;5.418;2024-03-08T06:18:58;101770.94;;;0.37;100.00
79729;BME280;69218;52.132;5.418;2024-03-08T06:21:25;101763.16;;;0.39;100.00
79729;BME280;69218;52.132;5.418;2024-03-08T06:23:54;101766.59;;;0.39;100.00
79729;BME280;69218;52.132;5.418;2024-03-08T06:26:21;101770.00;;;0.40;100.00
79729;BME280;69218;52.132;5.418;2024-03-08T06:28:55;101758.81;;;0.41;100.00
79729;BME280;69218;52.132;5.418;2024-03-08T06:31:22;101763.06;;;0.43;100.00
79729;BME280;69218;52.132;5.418;2024-03-08T06:33:49;101769.03;;;0.45;100.00
79729;BME280;69218;52.132;5.418;2024-03-08T06:36:17;101771.59;;;0.45;100.00
79729;BME280;69218;52.132;5.418;2024-03-08T06:38:48;101770.72;;;0.46;100.00
79729;BME280;69218;52.132;5.418;2024-03-08T06:41:15;101766.38;;;0.48;100.00
79729;BME280;69218;52.132;5.418;2024-03-08T06:43:45;101766.34;;;0.50;100.00
79729;BME280;69218;52.132;5.418;2024-03-08T06:46:14;101763.69;;;0.53;100.00
79729;BME280;69218;52.132;5.418;2024-03-08T06:48:41;101755.91;;;0.54;100.00
79729;BME280;69218;52.132;5.418;2024-03-08T06:51:08;101756.69;;;0.58;100.00
79729;BME280;69218;52.132;5.418;2024-03-08T06:53:37;101758.41;;;0.59;100.00
79729;BME280;69218;52.132;5.418;2024-03-08T06:56:05;101760.94;;;0.61;100.00
79729;BME280;69218;52.132;5.418;2024-03-08T06:58:31;101757.47;;;0.62;100.00
79729;BME280;69218;52.132;5.418;2024-03-08T07:00:59;101753.91;;;0.67;100.00
79729;BME280;69218;52.132;5.418;2024-03-08T07:03:27;101749.53;;;0.69;100.00
79729;BME280;69218;52.132;5.418;2024-03-08T07:05:56;101755.50;;;0.73;100.00
79729;BME280;69218;52.132;5.418;2024-03-08T07:08:25;101757.09;;;0.77;99.89
79729;BME280;69218;52.132;5.418;2024-03-08T07:10:54;101751.88;;;0.80;99.56
79729;BME280;69218;52.132;5.418;2024-03-08T07:13:21;101755.22;;;0.83;99.66
79729;BME280;69218;52.132;5.418;2024-03-08T07:15:47;101744.84;;;0.87;99.32
79729;BME280;69218;52.132;5.418;2024-03-08T07:18:14;101750.75;;;0.90;99.34
79729;BME280;69218;52.132;5.418;2024-03-08T07:20:44;101745.47;;;0.95;98.94
79729;BME280;69218;52.132;5.418;2024-03-08T07:23:11;101746.25;;;0.98;98.94
79729;BME280;69218;52.132;5.418;2024-03-08T07:25:57;101745.28;;;1.02;99.01
79729;BME280;69218;52.132;5.418;2024-03-08T07:28:24;101744.28;;;1.08;98.62
79729;BME280;69218;52.132;5.418;2024-03-08T07:30:50;101734.72;;;1.12;98.40
79729;BME280;69218;52.132;5.418;2024-03-08T07:33:29;101739.81;;;1.15;98.48
79729;BME280;69218;52.132;5.418;2024-03-08T07:35:57;101727.59;;;1.20;97.97
79729;BME280;69218;52.132;5.418;2024-03-08T07:38:23;101736.09;;;1.25;97.69
79729;BME280;69218;52.132;5.418;2024-03-08T07:40:50;101723.97;;;1.28;97.76
79729;BME280;69218;52.132;5.418;2024-03-08T07:43:16;101725.53;;;1.34;97.46
79729;BME280;69218;52.132;5.418;2024-03-08T07:45:44;101721.06;;;1.39;97.05
79729;BME280;69218;52.132;5.418;2024-03-08T07:48:10;101718.31;;;1.45;96.93
79729;BME280;69218;52.132;5.418;2024-03-08T07:50:40;101714.72;;;1.51;96.61
79729;BME280;69218;52.132;5.418;2024-03-08T07:53:07;101708.56;;;1.55;96.40
79729;BME280;69218;52.132;5.418;2024-03-08T07:55:34;101715.22;;;1.63;95.89
79729;BME280;69218;52.132;5.418;2024-03-08T07:58:02;101711.59;;;1.69;95.99
79729;BME280;69218;52.132;5.418;2024-03-08T08:00:38;101710.53;;;1.78;95.40
79729;BME280;69218;52.132;5.418;2024-03-08T08:03:05;101699.09;;;1.85;95.03
79729;BME280;69218;52.132;5.418;2024-03-08T08:05:32;101697.22;;;1.90;94.57
79729;BME280;69218;52.132;5.418;2024-03-08T08:08:02;101690.16;;;1.95;94.53
79729;BME280;69218;52.132;5.418;2024-03-08T08:10:33;101684.72;;;2.04;94.87
79729;BME280;69218;52.132;5.418;2024-03-08T08:12:59;101696.63;;;2.10;93.76
79729;BME280;69218;52.132;5.418;2024-03-08T08:15:27;101689.50;;;2.16;93.52
79729;BME280;69218;52.132;5.418;2024-03-08T08:17:54;101682.41;;;2.23;93.45
79729;BME280;69218;52.132;5.418;2024-03-08T08:20:23;101683.06;;;2.30;92.47
79729;BME280;69218;52.132;5.418;2024-03-08T08:22:50;101677.66;;;2.37;92.38
79729;BME280;69218;52.132;5.418;2024-03-08T08:25:17;101674.88;;;2.43;91.49
79729;BME280;69218;52.132;5.418;2024-03-08T08:27:47;101676.25;;;2.54;91.55
79729;BME280;69218;52.132;5.418;2024-03-08T08:30:14;101680.13;;;2.67;91.33
79729;BME280;69218;52.132;5.418;2024-03-08T08:32:40;101678.09;;;2.77;90.72
79729;BME280;69218;52.132;5.418;2024-03-08T08:35:08;101669.22;;;2.84;90.25
79729;BME280;69218;52.132;5.418;2024-03-08T08:37:38;101667.94;;;2.95;89.99
79729;BME280;69218;52.132;5.418;2024-03-08T08:40:05;101665.97;;;3.02;89.80
79729;BME280;69218;52.132;5.418;2024-03-08T08:42:36;101664.72;;;3.14;89.93
79729;BME280;69218;52.132;5.418;2024-03-08T08:45:05;101649.75;;;3.22;89.08
79729;BME280;69218;52.132;5.418;2024-03-08T08:47:42;101643.38;;;3.30;88.73
79729;BME280;69218;52.132;5.418;2024-03-08T08:50:09;101647.34;;;3.41;88.46
79729;BME280;69218;52.132;5.418;2024-03-08T08:52:39;101641.13;;;3.45;87.15
79729;BME280;69218;52.132;5.418;2024-03-08T08:55:06;101637.47;;;3.50;87.40
79729;BME280;69218;52.132;5.418;2024-03-08T08:57:33;101645.69;;;3.62;87.17
79729;BME280;69218;52.132;5.418;2024-03-08T08:59:59;101641.97;;;3.69;86.75
79729;BME280;69218;52.132;5.418;2024-03-08T09:02:26;101640.09;;;3.72;86.47
79729;BME280;69218;52.132;5.418;2024-03-08T09:04:53;101630.38;;;3.77;86.13
79729;BME280;69218;52.132;5.418;2024-03-08T09:07:20;101622.31;;;3.85;85.55
79729;BME280;69218;52.132;5.418;2024-03-08T09:09:47;101627.19;;;3.93;84.71
79729;BME280;69218;52.132;5.418;2024-03-08T09:12:13;101623.34;;;4.03;85.25
79729;BME280;69218;52.132;5.418;2024-03-08T09:14:41;101622.13;;;4.11;84.26
79729;BME280;69218;52.132;5.418;2024-03-08T09:17:08;101621.88;;;4.18;84.34
79729;BME280;69218;52.132;5.418;2024-03-08T09:19:35;101616.38;;;4.25;83.76
79729;BME280;69218;52.132;5.418;2024-03-08T09:22:04;101604.78;;;4.34;83.79
79729;BME280;69218;52.132;5.418;2024-03-08T09:24:30;101610.38;;;4.45;83.76
79729;BME280;69218;52.132;5.418;2024-03-08T09:26:57;101608.28;;;4.53;83.47
79729;BME280;69218;52.132;5.418;2024-03-08T09:29:27;101603.75;;;4.58;82.77
79729;BME280;69218;52.132;5.418;2024-03-08T09:31:54;101591.34;;;4.65;82.23
79729;BME280;69218;52.132;5.418;2024-03-08T09:34:24;101594.50;;;4.72;81.93
79729;BME280;69218;52.132;5.418;2024-03-08T09:37:01;101589.78;;;4.81;81.56
79729;BME280;69218;52.132;5.418;2024-03-08T09:39:30;101582.34;;;4.92;81.88
79729;BME280;69218;52.132;5.418;2024-03-08T09:42:03;101582.66;;;5.05;82.42
79729;BME280;69218;52.132;5.418;2024-03-08T09:44:30;101577.69;;;5.19;81.91
79729;BME280;69218;52.132;5.418;2024-03-08T09:46:58;101576.09;;;5.36;81.04
79729;BME280;69218;52.132;5.418;2024-03-08T09:49:25;101564.63;;;5.40;79.82
79729;BME280;69218;52.132;5.418;2024-03-08T09:51:51;101554.69;;;5.48;80.00
79729;BME280;69218;52.132;5.418;2024-03-08T09:54:19;101555.81;;;5.61;79.64
79729;BME280;69218;52.132;5.418;2024-03-08T09:56:51;101548.56;;;5.68;78.48
79729;BME280;69218;52.132;5.418;2024-03-08T09:59:18;101542.78;;;5.80;79.09
79729;BME280;69218;52.132;5.418;2024-03-08T10:01:53;101538.44;;;5.98;78.32
79729;BME280;69218;52.132;5.418;2024-03-08T10:04:22;101540.44;;;6.10;79.45
79729;BME280;69218;52.132;5.418;2024-03-08T10:06:49;101537.25;;;6.22;77.49
79729;BME280;69218;52.132;5.418;2024-03-08T10:09:16;101532.78;;;6.24;76.47
79729;BME280;69218;52.132;5.418;2024-03-08T10:11:43;101523.84;;;6.30;76.99
79729;BME280;69218;52.132;5.418;2024-03-08T10:14:10;101531.09;;;6.41;77.20
79729;BME280;69218;52.132;5.418;2024-03-08T10:16:40;101520.28;;;6.48;76.10
79729;BME280;69218;52.132;5.418;2024-03-08T10:19:06;101512.41;;;6.50;74.66
79729;BME280;69218;52.132;5.418;2024-03-08T10:21:34;101503.44;;;6.55;75.05
79729;BME280;69218;52.132;5.418;2024-03-08T10:24:02;101499.59;;;6.63;74.53
79729;BME280;69218;52.132;5.418;2024-03-08T10:26:30;101502.22;;;6.78;73.75
79729;BME280;69218;52.132;5.418;2024-03-08T10:28:56;101497.53;;;6.85;73.96
79729;BME280;69218;52.132;5.418;2024-03-08T10:31:24;101493.34;;;6.98;73.93
79729;BME280;69218;52.132;5.418;2024-03-08T10:33:50;101496.19;;;7.09;73.60
79729;BME280;69218;52.132;5.418;2024-03-08T10:36:17;101484.16;;;7.23;73.62
79729;BME280;69218;52.132;5.418;2024-03-08T10:38:45;101477.25;;;7.37;73.63
79729;BME280;69218;52.132;5.418;2024-03-08T10:41:16;101478.75;;;7.57;73.46
79729;BME280;69218;52.132;5.418;2024-03-08T10:49:04;101460.13;;;7.63;69.86
79729;BME280;69218;52.132;5.418;2024-03-08T10:51:35;101457.91;;;7.71;69.98
79729;BME280;69218;52.132;5.418;2024-03-08T10:54:03;101452.78;;;7.70;68.26
79729;BME280;69218;52.132;5.418;2024-03-08T10:56:31;101447.28;;;7.75;70.02
79729;BME280;69218;52.132;5.418;2024-03-08T10:58:58;101442.56;;;7.81;69.02
79729;BME280;69218;52.132;5.418;2024-03-08T11:01:24;101434.75;;;7.95;68.80
79729;BME280;69218;52.132;5.418;2024-03-08T11:03:52;101428.81;;;8.08;68.76
79729;BME280;69218;52.132;5.418;2024-03-08T11:09:30;101407.97;;;8.36;68.08
79729;BME280;69218;52.132;5.418;2024-03-08T11:12:25;101402.63;;;8.38;66.48
79729;BME280;69218;52.132;5.418;2024-03-08T11:14:53;101397.81;;;8.46;66.28
79729;BME280;69218;52.132;5.418;2024-03-08T11:17:21;101399.94;;;8.53;67.15
79729;BME280;69218;52.132;5.418;2024-03-08T11:19:49;101391.63;;;8.61;64.17
79729;BME280;69218;52.132;5.418;2024-03-08T11:22:28;101386.09;;;8.66;65.67
79729;BME280;69218;52.132;5.418;2024-03-08T11:25:08;101377.69;;;8.75;65.24
79729;BME280;69218;52.132;5.418;2024-03-08T11:27:37;101371.47;;;8.90;65.86
79729;BME280;69218;52.132;5.418;2024-03-08T11:30:08;101360.69;;;8.95;65.74
79729;BME280;69218;52.132;5.418;2024-03-08T11:32:47;101356.34;;;9.08;64.35
79729;BME280;69218;52.132;5.418;2024-03-08T11:35:21;101355.38;;;9.23;65.63
79729;BME280;69218;52.132;5.418;2024-03-08T11:37:51;101347.88;;;9.31;64.34
79729;BME280;69218;52.132;5.418;2024-03-08T11:40:19;101345.16;;;9.46;63.48
79729;BME280;69218;52.132;5.418;2024-03-08T11:42:47;101331.88;;;9.49;63.62
79729;BME280;69218;52.132;5.418;2024-03-08T11:45:15;101330.31;;;9.59;63.10
79729;BME280;69218;52.132;5.418;2024-03-08T11:47:44;101335.34;;;9.75;63.21
79729;BME280;69218;52.132;5.418;2024-03-08T11:50:13;101324.75;;;9.89;61.68
79729;BME280;69218;52.132;5.418;2024-03-08T11:52:44;101323.09;;;9.88;60.79
79729;BME280;69218;52.132;5.418;2024-03-08T11:55:12;101317.22;;;9.97;61.21
79729;BME280;69218;52.132;5.418;2024-03-08T11:57:39;101304.84;;;9.99;61.37
79729;BME280;69218;52.132;5.418;2024-03-08T12:00:06;101301.47;;;10.10;59.76
79729;BME280;69218;52.132;5.418;2024-03-08T12:03:00;101301.88;;;10.16;58.04
79729;BME280;69218;52.132;5.418;2024-03-08T12:05:27;101288.78;;;10.16;57.42
79729;BME280;69218;52.132;5.418;2024-03-08T12:07:57;101296.97;;;10.25;57.58
79729;BME280;69218;52.132;5.418;2024-03-08T12:10:25;101293.81;;;10.32;57.63
79729;BME280;69218;52.132;5.418;2024-03-08T12:12:54;101290.22;;;10.33;56.39
79729;BME280;69218;52.132;5.418;2024-03-08T12:15:22;101280.25;;;10.38;57.68
79729;BME280;69218;52.132;5.418;2024-03-08T12:17:53;101276.84;;;10.49;56.63
79729;BME280;69218;52.132;5.418;2024-03-08T12:20:26;101272.56;;;10.48;56.37
79729;BME280;69218;52.132;5.418;2024-03-08T12:22:53;101280.53;;;10.47;55.70
79729;BME280;69218;52.132;5.418;2024-03-08T12:25:26;101281.69;;;10.42;55.68
79729;BME280;69218;52.132;5.418;2024-03-08T12:27:53;101271.19;;;10.55;56.08
79729;BME280;69218;52.132;5.418;2024-03-08T12:30:25;101262.19;;;10.70;55.71
79729;BME280;69218;52.132;5.418;2024-03-08T12:32:58;101262.56;;;10.77;54.93
79729;BME280;69218;52.132;5.418;2024-03-08T12:35:27;101257.56;;;10.74;54.30
79729;BME280;69218;52.132;5.418;2024-03-08T12:37:55;101242.34;;;10.79;54.88
79729;BME280;69218;52.132;5.418;2024-03-08T12:40:26;101243.19;;;10.91;54.89
79729;BME280;69218;52.132;5.418;2024-03-08T12:42:55;101238.94;;;11.01;54.92
79729;BME280;69218;52.132;5.418;2024-03-08T12:45:23;101224.03;;;11.02;54.40
79729;BME280;69218;52.132;5.418;2024-03-08T12:47:51;101227.63;;;11.00;54.54
79729;BME280;69218;52.132;5.418;2024-03-08T12:50:18;101229.53;;;11.10;53.65
79729;BME280;69218;52.132;5.418;2024-03-08T12:52:45;101209.25;;;11.00;53.16
79729;BME280;69218;52.132;5.418;2024-03-08T12:55:11;101232.03;;;11.00;54.16
79729;BME280;69218;52.132;5.418;2024-03-08T12:57:39;101217.00;;;11.02;55.14
79729;BME280;69218;52.132;5.418;2024-03-08T13:00:06;101228.13;;;11.17;55.52
79729;BME280;69218;52.132;5.418;2024-03-08T13:02:39;101217.03;;;11.24;53.77
79729;BME280;69218;52.132;5.418;2024-03-08T13:05:07;101212.28;;;11.30;54.13
79729;BME280;69218;52.132;5.418;2024-03-08T13:07:35;101216.25;;;11.35;54.99